Tiempo atmosférico en la estación meteorológica de Reus Aeropuerto, Tarragona (71 m.)



Fecha
DESCASC
Temp. máxima en grados centígrados (hora)
DESCASC
Temp. mínima en grados centígrados (hora)
DESCASC
Temp. media en grados centígrados
DESCASC
Racha de viento máxima en m/sg (hora)
DESCASC
Velocidad máxima media en intervalos de 10 minutos(hora)
DESCASC
Precipitaciones diarias en mm
DESCASC
Precipitaciones de 00:00 a 06:00 en mm
DESCASC
Precipitaciones de 06:00 a 12:00 en mm
DESCASC
Precipitaciones de 12:00 a 18:00 en mm
DESCASC
Precipitaciones de 18:00 a 24:00 en mm
DESCASC
05-12-2019 12.7 (15:40) 10.1 (23:59) 11.4 12.78 (02:20) 9.17 (02:20) 3.7 0 2.1 1.6 0
04-12-2019 13.3 (08:30) 9.8 (18:20) 11.6 20 (18:20) 13.61 (18:20) 18.1 0 7.9 9.3 0.9
03-12-2019 12.5 (23:00) 2.2 (07:30) 7.4 9.17 (23:10) 6.39 (23:10) 0.1 0 0 0.1 0
02-12-2019 16.5 (15:30) 5.4 (00:00) 11 6.67 (01:10) 4.72 (01:10) 0 0 0 0 0
01-12-2019 16.9 (16:10) 8 (00:00) 12.4 7.22 (21:50) 5 (02:10) 0 0 0 0 0
30-11-2019 18.7 (12:50) 6.5 (00:00) 12.6 5.83 (21:20) 3.89 (03:20) 0 0 0 0 0
29-11-2019 21.9 (14:00) 8 (00:00) 14.9 10.28 (05:30) 6.94 (14:50) 0 0 0 0 0
28-11-2019 19.6 (13:50) 10.1 (03:50) 14.9 16.11 (04:20) 11.39 (04:20) -- 0 -- -- 0
27-11-2019 19.2 (15:00) 8.9 (00:00) 14.1 15.28 (07:00) 10.56 (10:30) 0 0 0 0 0
26-11-2019 20.6 (14:00) 6.4 (00:00) 13.5 9.72 (13:00) 7.5 (13:10) 0 0 0 0 0
25-11-2019 19 (14:00) 5.7 (00:00) 12.3 7.78 (00:30) 5.28 (08:20) 0 0 0 0 0
24-11-2019 15.6 (12:50) 5.2 (00:00) 10.4 22.22 (05:20) 13.89 (02:10) 0 0 0 0 0
23-11-2019 14.8 (14:00) 8.4 (00:00) 11.6 30.83 (16:30) 18.33 (15:50) 0.2 0.2 0 0 0
22-11-2019 17 (13:00) 7.8 (00:00) 12.4 9.72 (21:50) 6.39 (21:50) 9.8 0 0 2.1 7.7
21-11-2019 16.4 (13:50) 3.3 (00:00) 9.8 -- (--) -- (--) 0 0 0 0 0
20-11-2019 14.7 (13:50) 1.8 (01:50) 8.2 6.11 (19:50) 4.44 (05:40) 0 0 0 0 0
19-11-2019 14.4 (14:10) 1.1 (00:00) 7.7 12.5 (06:50) 8.33 (06:50) 0 0 0 0 0
18-11-2019 13.8 (15:10) 3.9 (00:00) 8.9 14.44 (22:20) 10.56 (22:40) -- 0 0 -- 0
17-11-2019 16.6 (15:30) 6.1 (00:00) 11.4 12.78 (11:20) 10 (12:00) 0 0 0 0 0
16-11-2019 13.1 (13:20) 0.3 (00:00) 6.7 13.33 (16:10) 8.33 (16:10) 0 0 0 0 0
15-11-2019 13.5 (13:30) 3.6 (00:00) 8.5 10.83 (12:00) 8.33 (20:30) 0 0 0 0 0
14-11-2019 12.6 (10:50) 3.9 (00:00) 8.3 18.61 (11:00) 13.33 (11:10) 1.8 0 1.8 0 0
13-11-2019 15.3 (14:50) 7.9 (00:00) 11.6 8.89 (00:10) 5.83 (00:10) 6.2 0 6.2 0 0
12-11-2019 17 (15:20) 8.2 (00:00) 12.6 15.28 (02:20) 11.39 (07:50) 0 0 0 0 0
11-11-2019 16.1 (15:00) 6.6 (03:40) 11.4 13.33 (01:20) 9.44 (23:50) 0 0 0 0 0
10-11-2019 14.6 (14:40) 7.4 (00:00) 11 16.39 (15:10) 11.67 (15:30) 0 0 0 0 0
09-11-2019 15.8 (14:00) 9.5 (00:00) 12.7 21.11 (09:10) 14.17 (09:00) 0 0 0 0 0
08-11-2019 15.8 (14:20) 7.4 (05:30) 11.6 26.39 (18:00) 17.5 (18:00) 0 0 0 0 0
07-11-2019 18.2 (14:40) 8.5 (00:00) 13.4 11.67 (14:30) 8.33 (14:40) 0 0 0 0 0
06-11-2019 18.9 (14:10) 10 (00:00) 14.4 18.89 (00:30) 10.83 (00:30) 0 0 0 0 0

Gráficas

Temp. máximas Temp. mínimas Temp. medias Precipitaciones Rachas de viento máximas Velocidades máximas media en intervalos de 10 minutos

Datos horarios

Fecha y hora oficial Temperatura (ºC) Velocidad del viento (km/h) Dirección del viento Racha (km/h) Dirección de racha Precipitación (mm) Presión (hPa) Tendencia (hPa) Humedad (%)
2019-12-05 23:00:00 10.7 7 Nordeste 18 Norte 0 1013.5 1.2 81
2019-12-05 22:00:00 12 13 Norte 17 Norte 0 1012.9 1.1 77
2019-12-05 21:00:00 11.9 13 Nordeste 18 Nordeste 0 1012.8 1.8 79
2019-12-05 20:00:00 11.7 9 Nordeste 26 Norte 0 1012.3 2.1 81
2019-12-05 19:00:00 12 10 Nordeste 26 Norte 0 1011.8 2.2 77
2019-12-05 18:00:00 12.4 19 Norte 30 Norte 0 1011 2.2 76
2019-12-05 17:00:00 12.2 18 Norte 32 Nordeste 0.3 1010.2 1.3 79
2019-12-05 16:00:00 12.4 22 Norte 37 Norte 0.1 1009.6 0.6 77
2019-12-05 15:00:00 12.3 21 Norte 32 Nordeste 0.2 1008.8 -0.4 79
2019-12-05 14:00:00 12.1 18 Norte 28 Norte 0.2 1008.9 -0.2 81
2019-12-05 13:00:00 12 6 Norte 21 Norte 0.8 1009 0.6 85
2019-12-05 12:00:00 11.9 15 Norte 26 Norte 0.4 1009.2 1.9 85
2019-12-05 11:00:00 11.4 14 Norte 30 Norte 1.4 1009.1 2.3 86
2019-12-05 10:00:00 11.3 21 Norte 32 Norte 0.3 1008.4 2.5 84
2019-12-05 09:00:00 11.8 17 Norte 28 Norte 0 1007.3 1.9 78
2019-12-05 08:00:00 12 16 Norte 28 Norte 0 1006.8 1.9 76
2019-12-05 07:00:00 12.1 18 Norte 28 Norte 0 1005.9 1.3 74
2019-12-05 06:00:00 12.1 15 Norte 26 Norte 0 1005.4 1.6 75
2019-12-05 05:00:00 11.8 17 Norte 30 Norte 0 1004.9 2.1 76
2019-12-05 04:00:00 11.5 21 Nordeste 35 Norte 0 1004.6 1.9 78
2019-12-05 03:00:00 11.5 26 Norte 46 Norte 0 1003.8 1.6 76
2019-12-05 02:00:00 11.5 30 Norte 42 Nordeste 0 1002.8 1.4 71
2019-12-05 01:00:00 11.2 24 Norte 37 Norte 0 1002.7 1.7 78
2019-12-05 00:00:00 11.9 24 Nordeste 37 Nordeste 0 1002.2 1.7 73
2019-12-04 23:00:00 11.7 20 Norte 30 Norte 0 1001.4 2.1 77
2019-12-04 22:00:00 11.4 20 Norte 37 Nordeste 0 1001 3.1 82
2019-12-04 21:00:00 11 21 Nordeste 37 Nordeste 0 1000.5 3.2 88
2019-12-04 20:00:00 10.9 25 Norte 48 Norte 0 999.3 2 92
2019-12-04 19:00:00 10.3 37 Norte 72 Norte 0.9 997.9 0.8 96
2019-12-04 18:00:00 10 45 Norte 68 Norte 2.5 997.3 -0.4 97
2019-12-04 17:00:00 9.9 35 Norte 58 Nordeste 2.6 997.3 -1 97
2019-12-04 16:00:00 10.3 38 Norte 63 Norte 2.2 997.1 -1.4 94
2019-12-04 15:00:00 11.1 32 Norte 45 Norte 1.7 997.7 -1.8 87
2019-12-04 14:00:00 11.5 22 Nordeste 37 Nordeste 0.3 998.3 -1.4 87
2019-12-04 13:00:00 11.3 23 Norte 54 Nordeste 0 998.5 -1.7 89
2019-12-04 12:00:00 10.7 27 Nordeste 52 Norte 2.8 999.5 -0.3 94
2019-12-04 11:00:00 10.4 26 Norte 35 Norte 3.6 999.7 0.2 92
2019-12-04 10:00:00 11.1 22 Nordeste 41 Nordeste 0.7 1000.2 0.4 84
2019-12-04 09:00:00 12.1 27 Nordeste 55 Nordeste 0.1 999.8 -1 76
2019-12-04 08:00:00 12.4 28 Nordeste 41 Nordeste 0 999.5 -1.6 72
2019-12-04 07:00:00 11.5 22 Nordeste 35 Norte 0.7 999.8 -2.1 79
2019-12-04 06:00:00 12.8 21 Nordeste 37 Nordeste 0 1000.8 -2.1 65
2019-12-04 05:00:00 13 23 Nordeste 42 Norte 0 1001.1 -2.4 63
2019-12-04 04:00:00 13 28 Norte 45 Norte 0 1001.9 -2.9 62
2019-12-04 03:00:00 12.5 25 Norte 37 Nordeste 0 1002.9 -3 61
2019-12-04 02:00:00 12.2 24 Norte 41 Nordeste 0 1003.5 -2.7 61
2019-12-04 01:00:00 12.3 21 Norte 32 Norte 0 1004.8 -1.7 60
2019-12-04 00:00:00 12.4 21 Norte 33 Nordeste 0 1005.9 -0.8 60
2019-12-03 23:00:00 12.5 21 Norte 32 Nordeste 0 1006.2 -0.6 60
2019-12-03 22:00:00 12.3 21 Norte 28 Nordeste 0 1006.5 -0.2 61
2019-12-03 21:00:00 12 18 Norte 32 Norte 0 1006.7 0.2 61
2019-12-03 20:00:00 11.5 21 Norte 30 Norte 0 1006.8 0.3 61
2019-12-03 19:00:00 11.3 17 Norte 26 Nordeste 0 1006.7 -0.5 62
2019-12-03 18:00:00 10.5 17 Norte 32 Norte 0 1006.5 -1.2 64
2019-12-03 17:00:00 10.8 17 Norte 22 Norte 0 1006.5 -1.9 64
2019-12-03 16:00:00 11 12 Norte 17 Norte 0.1 1007.2 -1.8 66
2019-12-03 15:00:00 10.8 5 Noroeste 9 Noroeste 0 1007.7 -2.3 61
2019-12-03 14:00:00 10.4 4 Noroeste 8 Oeste 0 1008.4 -2.1 61
2019-12-03 13:00:00 9.5 6 Noroeste 13 Noroeste 0 1009 -1.5 63
2019-12-03 12:00:00 9.6 5 Este 9 Este 0 1010 -0.3 62
2019-12-03 11:00:00 9.1 3 Noroeste 13 Norte 0 1010.5 0.7 65
2019-12-03 10:00:00 5.5 9 Norte 15 Norte 0 1010.5 1.3 82
2019-12-03 09:00:00 3.1 0 Calma 8 Oeste 0 1010.3 1.7 88
2019-12-03 08:00:00 2.4 0 Calma 8 Sudeste 0 1009.8 1 88
2019-12-03 07:00:00 2.4 0 Calma 8 Sur 0 1009.2 0.1 90
2019-12-03 06:00:00 3 3 Norte 11 Noroeste 0 1008.6 -0.5 90
2019-12-03 05:00:00 3.4 3 Norte 9 Oeste 0 1008.8 -0.3 86
2019-12-03 04:00:00 3.5 4 Norte 8 Norte 0 1009.1 -0.2 89
2019-12-03 03:00:00 4.3 3 Nordeste 13 Oeste 0 1009.1 -0.4 86
2019-12-03 02:00:00 5.8 10 Norte 22 Oeste 0 1009.1 -0.3 81
2019-12-03 01:00:00 8 17 Oeste 24 Oeste 0 1009.3 0 76
2019-12-03 00:00:00 6.4 14 Oeste 17 Oeste 0 1009.5 0.5 83
2019-12-02 23:00:00 6 10 Norte 15 Norte 0 1009.4 1.1 82
2019-12-02 22:00:00 6.7 12 Norte 13 Norte 0 1009.3 1.4 80
2019-12-02 21:00:00 6.2 7 Este 17 Oeste 0 1009 1.5 83
2019-12-02 20:00:00 7.8 12 Oeste 15 Oeste 0 1008.3 1.2 79
2019-12-02 19:00:00 10 5 Oeste 13 Este 0 1007.9 0.9 68
2019-12-02 18:00:00 10.3 12 Este 17 Nordeste 0 1007.5 0.5 74
2019-12-02 17:00:00 14.8 6 Sudoeste 11 Sur 0 1007.1 -0.2 59
2019-12-02 16:00:00 16.1 7 Sur 13 Sur 0 1007 -0.7 54
2019-12-02 15:00:00 16.1 8 Sudoeste 17 Sudoeste 0 1007 -1.1 51
2019-12-02 14:00:00 15.6 11 Sudoeste 18 Sudoeste 0 1007.3 -0.8 53
2019-12-02 13:00:00 16.1 10 Sudoeste 18 Sudoeste 0 1007.7 0.1 53
2019-12-02 12:00:00 15.2 9 Sur 17 Sur 0 1008.1 1.2 57
2019-12-02 11:00:00 11.9 0 Calma 11 Nordeste 0 1008.1 1.5 73
2019-12-02 10:00:00 9 8 Nordeste 11 Nordeste 0 1007.6 1.9 85
2019-12-02 09:00:00 9.2 4 Noroeste 9 Noroeste 0 1006.9 1.7 82
2019-12-02 08:00:00 8.6 0 Calma 13 Norte 0 1006.6 1.5 82
2019-12-02 07:00:00 9.1 9 Norte 13 Norte 0 1005.7 0.6 80
2019-12-02 06:00:00 8.6 10 Nordeste 11 Nordeste 0 1005.2 0.1 87
2019-12-02 05:00:00 8.7 6 Nordeste 13 Nordeste 0 1005.1 0.2 82
2019-12-02 04:00:00 10.6 4 Nordeste 18 Norte 0 1005.1 0.1 75
2019-12-02 03:00:00 9.8 13 Norte 21 Norte 0 1005.1 0.1 74
2019-12-02 02:00:00 9.1 14 Norte 24 Nordeste 0 1004.9 0.3 72
2019-12-02 01:00:00 8.4 14 Nordeste 21 Nordeste 0 1005 0.8 74
2019-12-02 00:00:00 8.9 11 Nordeste 17 Norte 0 1005 1.2 72
2019-12-01 23:00:00 9 13 Norte 22 Norte 0 1004.6 1 70
2019-12-01 22:00:00 9.1 18 Nordeste 26 Nordeste 0 1004.2 1.3 72
2019-12-01 21:00:00 8 10 Norte 17 Norte 0 1003.8 1.4 70
2019-12-01 20:00:00 8.4 13 Norte 17 Norte 0 1003.6 1.6 71
2019-12-01 19:00:00 9.2 9 Norte 13 Norte 0 1002.9 1 71
2019-12-01 18:00:00 11.2 0 Calma 15 Nordeste 0 1002.4 0.6 64
2019-12-01 17:00:00 14.4 10 Nordeste 15 Nordeste 0 1002 -0.2 56
2019-12-01 16:00:00 16.5 8 Este 11 Este 0 1001.9 -0.6 50
2019-12-01 15:00:00 15.6 5 Sudoeste 17 Sudoeste 0 1001.8 -1.4 51
2019-12-01 14:00:00 15.6 12 Sudoeste 22 Sudoeste 0 1002.2 -1.7 45
2019-12-01 13:00:00 15.7 11 Oeste 22 Oeste 0 1002.5 -1.1 46
2019-12-01 12:00:00 16.1 3 Nordeste 8 Este 0 1003.2 0.2 50
2019-12-01 11:00:00 13.2 3 Este 11 Nordeste 0 1003.9 1.2 63
2019-12-01 10:00:00 12.2 4 Este 8 Este 0 1003.6 1.5 69
2019-12-01 09:00:00 9.5 0 Calma 9 Este 0 1003 1.2 78
2019-12-01 08:00:00 10.7 0 Calma 9 Sur 0 1002.7 0.7 68
2019-12-01 07:00:00 10.5 4 Sur 15 Sudeste 0 1002.1 -0.2 76
2019-12-01 06:00:00 11.2 8 Sur 13 Sudeste 0 1001.8 -0.8 75
2019-12-01 05:00:00 11 9 Sur 17 Sudeste 0 1002 -1.4 84
2019-12-01 04:00:00 10.2 11 Sudeste 13 Sudeste 0 1002.3 -1.7 87
2019-12-01 03:00:00 11.5 12 Oeste 24 Oeste 0 1002.6 -1.7 78
2019-12-01 02:00:00 12 9 Noroeste 24 Oeste 0 1003.4 -1 89
2019-12-01 01:00:00 9.5 8 Oeste 11 Oeste 0 1004 -1 94
2019-12-01 00:00:00 9.6 9 Noroeste 13 Norte 0 1004.3 -1 94
2019-11-30 23:00:00 9.3 10 Norte 13 Norte 0 1004.4 -0.9 93
2019-11-30 22:00:00 10.2 5 Norte 21 Norte 0 1005 -0.7 94
2019-11-30 21:00:00 10.1 9 Norte 13 Nordeste 0 1005.3 -0.6 93
2019-11-30 20:00:00 10.8 -- -- -- -- 0 1005.3 -0.9 93
2019-11-30 19:00:00 11.5 5 Oeste 9 Oeste 0 1005.7 -0.8 91
2019-11-30 18:00:00 12 7 Oeste 11 Sudoeste 0 1005.9 -1.1 90
2019-11-30 17:00:00 15 8 Sur 15 Sur 0 1006.2 -1.6 80
2019-11-30 16:00:00 16.8 10 Sur 15 Sudeste 0 1006.5 -2.2 72
2019-11-30 15:00:00 17.3 9 Sudeste 18 Sur 0 1007 -2.9 69
2019-11-30 14:00:00 17.7 12 Sudeste 18 Sur 0 1007.8 -2.8 67
2019-11-30 13:00:00 18.6 10 Sur 17 Sudoeste 0 1008.7 -2.1 61
2019-11-30 12:00:00 17.4 2 Oeste 9 Nordeste 0 1009.9 -1 66
2019-11-30 11:00:00 15.9 3 Nordeste 8 Nordeste 0 1010.6 -0.3 72
2019-11-30 10:00:00 12.9 6 Este 8 Este 0 1010.8 -0.1 80
2019-11-30 09:00:00 9.3 5 Norte 11 Norte 0 1010.9 -0.1 91
2019-11-30 08:00:00 6.5 7 Nordeste 9 Este 0 1010.9 -0.2 92
2019-11-30 07:00:00 7.3 8 Norte 11 Nordeste 0 1010.9 -0.4 93
2019-11-30 06:00:00 7.3 8 Norte 13 Norte 0 1011 -0.9 91
2019-11-30 05:00:00 7.9 6 Norte 13 Norte 0 1011.1 -0.5 90
2019-11-30 04:00:00 8 12 Norte 17 Norte 0 1011.3 -0.3 88
2019-11-30 03:00:00 7.8 10 Nordeste 13 Nordeste 0 1011.9 0 89
2019-11-30 02:00:00 8.1 8 Nordeste 15 Norte 0 1011.6 -0.3 90
2019-11-30 01:00:00 7.5 10 Norte 15 Norte 0 1011.6 -0.3 92
2019-11-30 00:00:00 8.5 6 Norte 17 Norte 0 1011.9 0.3 89
2019-11-29 23:00:00 8.7 12 Norte 13 Norte 0 1011.9 0.9 90
2019-11-29 22:00:00 8.7 5 Norte 9 Norte 0 1011.9 1.3 88
2019-11-29 21:00:00 9.7 6 Norte 11 Norte 0 1011.6 1.7 88
2019-11-29 20:00:00 10.9 9 Norte 15 Norte 0 1011 1.9 86
2019-11-29 19:00:00 12 11 Nordeste 18 Oeste 0 1010.6 2.2 75
2019-11-29 18:00:00 14.6 16 Oeste 24 Oeste 0 1009.9 1.9 63
2019-11-29 17:00:00 16.8 16 Sudoeste 22 Sudoeste 0 1009.1 1.3 57
2019-11-29 16:00:00 18.2 13 Sudoeste 37 Oeste 0 1008.4 0.5 51
2019-11-29 15:00:00 19.6 21 Oeste 37 Oeste 0 1008 -0.2 46
2019-11-29 14:00:00 21.7 17 Oeste 35 Noroeste 0 1007.8 0 40
2019-11-29 13:00:00 20.2 21 Sudoeste 30 Sudoeste 0 1007.9 0.8 49
2019-11-29 12:00:00 18.3 16 Sudoeste 24 Sudoeste 0 1008.2 1.8 55
2019-11-29 11:00:00 18.9 14 Sur 26 Sudoeste 0 1007.8 2.1 55
2019-11-29 10:00:00 16.1 17 Sur 26 Sur 0 1007.1 2.1 63
2019-11-29 09:00:00 13.7 5 Sudeste 11 Nordeste 0 1006.4 1.8 72
2019-11-29 08:00:00 13.6 7 Este 15 Oeste 0 1005.7 1.3 68
2019-11-29 07:00:00 16.1 14 Oeste 35 Oeste 0 1005 0.6 58
2019-11-29 06:00:00 16 15 Oeste 37 Oeste 0 1004.6 0.5 56
2019-11-29 05:00:00 16.3 19 Oeste 33 Oeste 0 1004.4 0.5 54
2019-11-29 04:00:00 15.6 14 Sudoeste 28 Sudoeste 0 1004.4 0 55
2019-11-29 03:00:00 15.5 7 Norte 26 Oeste 0 1004.1 -0.7 54
2019-11-29 02:00:00 15.5 12 Noroeste 28 Noroeste 0 1003.9 -0.8 54
2019-11-29 01:00:00 13.9 0 Calma 11 Noroeste 0 1004.4 -0.4 57
2019-11-29 00:00:00 14.1 10 Noroeste 26 Oeste 0 1004.8 0.1 56
2019-11-28 23:00:00 15.6 15 Oeste 28 Oeste 0 1004.7 0.2 50
2019-11-28 22:00:00 14.1 5 Sur 11 Sur 0 1004.8 0.8 61
2019-11-28 21:00:00 12.4 5 Noroeste 13 Noroeste 0 1004.7 0.7 78
2019-11-28 20:00:00 13.2 3 Noroeste 17 Oeste 0 1004.5 0.6 80
2019-11-28 19:00:00 13.6 10 Oeste 13 Oeste 0 1004 0.1 78
2019-11-28 18:00:00 13.8 8 Noroeste 13 Sur 0 1004 0.3 73
2019-11-28 17:00:00 15.6 9 Sur 21 Sur 0 1003.9 -0.1 66
2019-11-28 16:00:00 17.8 13 Sur 33 Oeste 0 1003.9 -0.5 51
2019-11-28 15:00:00 19 27 Oeste 45 Oeste 0 1003.7 -1.2 44
2019-11-28 14:00:00 19.5 22 Sudoeste 42 Oeste 0 1004 -1.1 44
2019-11-28 13:00:00 19.4 22 Oeste 37 Sudoeste -- 1004.4 0.2 44
2019-11-28 12:00:00 18.6 25 Oeste 39 Oeste -- 1004.9 1.5 46
2019-11-28 11:00:00 17.4 30 Oeste 45 Oeste 0 1005.1 2.4 48
2019-11-28 10:00:00 16.4 22 Sudoeste 33 Sudoeste 0 1004.2 2.1 50
2019-11-28 09:00:00 14.2 17 Sudoeste 30 Sudoeste 0 1003.4 1.7 57
2019-11-28 08:00:00 12.5 13 Sudoeste 35 Oeste 0 1002.7 1.9 61
2019-11-28 07:00:00 14 30 Oeste 45 Oeste 0 1002.1 1.8 55
2019-11-28 06:00:00 13.4 20 Oeste 45 Oeste 0 1001.7 0.8 57
2019-11-28 05:00:00 14.4 27 Oeste 58 Oeste 0 1000.8 -0.4 54
2019-11-28 04:00:00 11.8 21 Noroeste 39 Oeste 0 1000.3 -1.1 64
2019-11-28 03:00:00 12.3 14 Sur 28 Sudoeste 0 1000.9 -0.5 60
2019-11-28 02:00:00 11.9 12 Sudoeste 22 Sudoeste 0 1001.2 0 60
2019-11-28 01:00:00 11.1 14 Sudoeste 18 Sudoeste 0 1001.4 0.2 67
2019-11-28 00:00:00 12 10 Oeste 13 Oeste 0 1001.4 0.5 61
2019-11-27 23:00:00 13.5 5 Sudoeste 13 Oeste 0 1001.2 0.5 56
2019-11-27 22:00:00 13.3 5 Oeste 11 Sudoeste 0 1001.2 1.1 56
2019-11-27 21:00:00 12.1 2 Noroeste 8 Oeste 0 1000.9 1.4 63
2019-11-27 20:00:00 13.4 0 Calma 33 Noroeste 0 1000.7 1.2 51
2019-11-27 19:00:00 14.8 14 Oeste 33 Noroeste 0 1000.1 0.7 48
2019-11-27 18:00:00 15.9 10 Norte 32 Oeste 0 999.5 -0.2 43
2019-11-27 17:00:00 17.6 10 Oeste 33 Noroeste 0 999.5 -0.2 39
2019-11-27 16:00:00 18.7 23 Oeste 33 Oeste 0 999.4 -0.3 36
2019-11-27 15:00:00 19 24 Oeste 35 Oeste 0 999.7 -0.3 38
2019-11-27 14:00:00 18.6 23 Oeste 39 Oeste 0 999.7 -0.3 39
2019-11-27 06:00:00 16.3 27 Oeste 45 Oeste 0 996.3 0.5 53
2019-11-27 05:00:00 16.6 28 Oeste 45 Oeste 0 995.9 -0.1 53
2019-11-27 04:00:00 9.3 14 Oeste 24 Oeste 0 995.8 -0.7 91
2019-11-27 03:00:00 10.8 12 Oeste 15 Oeste 0 995.8 -1.1 88
2019-11-27 02:00:00 10.4 8 Oeste 11 Oeste 0 996 -1.4 87
2019-11-27 01:00:00 10.9 0 Calma 9 Norte 0 996.5 -1.5 83
2019-11-27 00:00:00 11.9 2 Norte 13 Norte 0 996.9 -2.1 82
2019-11-26 23:00:00 11.7 10 Norte 17 Norte 0 997.4 -1.8 82
2019-11-26 22:00:00 10.6 11 Norte 15 Norte 0 998 -1.5 86
2019-11-26 21:00:00 10.2 10 Norte 15 Norte 0 999 -0.4 86
2019-11-26 20:00:00 10.2 8 Norte 11 Norte 0 999.2 -0.5 88
2019-11-26 19:00:00 11.6 0 Calma 5 Oeste 0 999.5 -0.3 81
2019-11-26 18:00:00 13.9 5 Sudoeste 11 Sudoeste 0 999.4 -0.7 72
2019-11-26 17:00:00 17 9 Sudoeste 24 Sur 0 999.7 -1.1 58
2019-11-26 16:00:00 18 16 Sur 28 Sudoeste 0 999.8 -1.6 53
2019-11-26 15:00:00 20.2 19 Sudoeste 26 Sudoeste 0 1000.1 -2.7 45
2019-11-26 14:00:00 20.5 22 Oeste 35 Oeste 0 1000.8 -2.8 43
2019-11-26 13:00:00 19.7 21 Oeste 35 Oeste 0 1001.4 -1.9 46
2019-11-26 12:00:00 19.2 19 Oeste 30 Oeste 0 1002.8 -0.5 50
2019-11-26 11:00:00 16.8 13 Sudoeste 21 Oeste 0 1003.6 0.5 60
2019-11-26 10:00:00 12.3 0 Calma 13 Nordeste 0 1003.3 0.3 80
2019-11-26 09:00:00 7.7 6 Nordeste 13 Norte 0 1003.3 0.1 91
2019-11-26 08:00:00 6.8 9 Norte 13 Norte 0 1003.1 -0.2 92
2019-11-26 07:00:00 6.5 9 Norte 11 Norte 0 1003 -0.6 92
2019-11-26 06:00:00 7.2 8 Norte 15 Norte 0 1003.2 -0.8 89
2019-11-26 05:00:00 7.5 10 Nordeste 15 Nordeste 0 1003.3 -0.9 92
2019-11-26 04:00:00 7.7 9 Norte 13 Norte 0 1003.6 -1 92
2019-11-26 03:00:00 7.7 8 Nordeste 11 Nordeste 0 1004 -0.9 92
2019-11-26 02:00:00 8 3 Norte 9 Norte 0 1004.2 -0.7 91
2019-11-26 01:00:00 8.6 9 Norte 15 Nordeste 0 1004.6 -0.1 91
2019-11-26 00:00:00 8.1 9 Nordeste 13 Norte 0 1004.9 0.5 89
2019-11-25 23:00:00 10.2 12 Norte 15 Norte 0 1004.9 0.7 85
2019-11-25 22:00:00 10.5 13 Norte 17 Norte 0 1004.7 0.9 85
2019-11-25 21:00:00 10.2 11 Norte 15 Norte 0 1004.4 1.3 86
2019-11-25 20:00:00 10.7 12 Norte 17 Norte 0 1004.2 1.5 85
2019-11-25 19:00:00 11.3 6 Norte 13 Nordeste 0 1003.8 1.7 83
2019-11-25 18:00:00 12.7 6 Nordeste 13 Nordeste 0 1003.1 1.7 78
2019-11-25 17:00:00 15.3 0 Calma 13 Sudeste 0 1002.7 1.7 70
2019-11-25 16:00:00 16.1 12 Sudeste 17 Sudeste 0 1002.1 0.9 66
2019-11-25 15:00:00 17.4 14 Sudeste 22 Sur 0 1001.4 -0.1 55
2019-11-25 14:00:00 18.9 8 Sudeste 17 Sudeste 0 1001 -0.6 49
2019-11-25 13:00:00 17.5 13 Sudeste 21 Sudeste 0 1001.2 -0.3 52
2019-11-25 12:00:00 17.4 11 Este 18 Sudeste 0 1001.5 0.1 52
2019-11-25 11:00:00 16.9 8 Este 18 Este 0 1001.6 0.5 54
2019-11-25 10:00:00 14.6 13 Nordeste 17 Este 0 1001.5 0.6 60
2019-11-25 09:00:00 11 9 Nordeste 28 Este 0 1001.4 0.5 71
2019-11-25 08:00:00 9 0 Calma 21 Este 0 1001.1 0.1 74
2019-11-25 07:00:00 7.4 9 Este 17 Norte 0 1000.9 0 79
2019-11-25 06:00:00 7.4 3 Nordeste 17 Norte 0 1000.9 -0.5 78
2019-11-25 05:00:00 9.4 4 Sur 11 Sur 0 1001 -0.4 69
2019-11-25 04:00:00 9.5 11 Oeste 18 Oeste 0 1000.9 -1.4 66
2019-11-25 03:00:00 10.3 12 Sudoeste 21 Sudoeste 0 1001.4 -0.8 60
2019-11-25 02:00:00 8.8 6 Oeste 21 Sudeste 0 1001.4 -0.2 67
2019-11-25 01:00:00 8.6 6 Oeste 28 Sudoeste 0 1002.3 0.6 68
2019-11-25 00:00:00 5.7 6 Noroeste 17 Noroeste 0 1002.2 0.5 82
2019-11-24 23:00:00 7.1 6 Oeste 13 Norte 0 1001.6 -0.3 74
2019-11-24 22:00:00 7.8 6 Norte 18 Oeste 0 1001.7 0.3 72
2019-11-24 21:00:00 10.7 12 Oeste 30 Noroeste 0 1001.7 0.7 59
2019-11-24 20:00:00 11.3 17 Noroeste 26 Noroeste 0 1001.9 1.8 58
2019-11-24 19:00:00 11.3 14 Oeste 30 Noroeste 0 1001.4 1.8 61
2019-11-24 18:00:00 12.2 17 Oeste 26 Oeste 0 1001 1.9 58
2019-11-24 17:00:00 14 15 Noroeste 45 Oeste 0 1000.1 1.2 52
2019-11-24 16:00:00 14.7 22 Noroeste 39 Noroeste 0 999.6 0.6 49
2019-11-24 15:00:00 14.3 14 Noroeste 41 Oeste 0 999.1 -0.2 51
2019-11-24 14:00:00 15.2 20 Noroeste 48 Oeste 0 998.9 0 49
2019-11-24 13:00:00 15.3 27 Noroeste 48 Noroeste 0 999 1 45
2019-11-24 12:00:00 14.9 32 Oeste 61 Noroeste 0 999.3 2 44
2019-11-24 11:00:00 14.2 22 Oeste 54 Noroeste 0 998.9 2.7 46
2019-11-24 10:00:00 12.3 27 Noroeste 61 Oeste 0 998 2.1 52
2019-11-24 09:00:00 11.7 35 Noroeste 72 Noroeste 0 997.3 3 52
2019-11-24 08:00:00 10.8 31 Noroeste 55 Noroeste 0 996.2 2.7 54
2019-11-24 07:00:00 11.1 39 Oeste 68 Oeste 0 995.9 1.6 53
2019-11-24 06:00:00 11 48 Noroeste 80 Noroeste 0 994.3 -0.1 54
2019-11-24 05:00:00 11.2 48 Oeste 76 Noroeste 0 993.5 0 53
2019-11-24 04:00:00 11.4 40 Noroeste 74 Noroeste 0 994.3 1.8 53
2019-11-24 03:00:00 11.5 33 Noroeste 68 Oeste 0 994.4 2.7 54
2019-11-24 02:00:00 11.5 47 Noroeste 72 Oeste 0 993.5 3 54
2019-11-24 01:00:00 11.3 37 Noroeste 78 Oeste 0 992.5 1.5 55
2019-11-24 00:00:00 11.7 46 Noroeste 76 Noroeste 0 991.7 2.3 52
2019-11-23 23:00:00 11.8 49 Noroeste 80 Oeste 0 990.5 2 51
2019-11-23 22:00:00 11.8 48 Noroeste 85 Oeste 0 991 3.5 51
2019-11-23 21:00:00 11.9 51 Oeste 91 Oeste 0 989.4 3 52
2019-11-23 20:00:00 12.2 56 Oeste 93 Noroeste 0 988.5 4.4 51
2019-11-23 19:00:00 12.6 59 Noroeste 93 Noroeste 0 987.5 4.5 49
2019-11-23 18:00:00 12.6 56 Oeste 87 Noroeste 0 986.4 4.2 49
2019-11-23 17:00:00 12.8 58 Noroeste 111 Noroeste 0 984.1 -0.2 50
2019-11-23 16:00:00 13.2 66 Noroeste 100 Oeste 0 983 -2.3 50
2019-11-23 15:00:00 13.1 57 Noroeste 87 Noroeste 0 982.2 -2.8 53
2019-11-23 14:00:00 14.6 15 Oeste 80 Noroeste 0 984.3 -0.5 50
2019-11-23 13:00:00 13.3 23 Noroeste 61 Noroeste 0 985.3 2 57
2019-11-23 12:00:00 13.3 25 Oeste 58 Noroeste 0 985 2.6 59
2019-11-23 11:00:00 14.4 19 Oeste 41 Oeste 0 984.8 2.6 55
2019-11-23 10:00:00 12.8 30 Oeste 54 Oeste 0 983.3 1.7 58
2019-11-23 09:00:00 11.1 15 Oeste 32 Oeste 0 982.4 1.2 68
2019-11-23 08:00:00 10.2 13 Oeste 21 Oeste 0 982.2 1.4 78
2019-11-23 07:00:00 8.9 8 Oeste 11 Oeste 0 981.6 0.6 89
2019-11-23 06:00:00 9.5 10 Sudoeste 21 Oeste 0 981.2 -0.1 89
2019-11-23 05:00:00 8.7 4 Norte 9 Norte 0 980.8 -0.6 93
2019-11-23 04:00:00 9.8 5 Noroeste 11 Noroeste 0 981 -1.2 92
2019-11-23 03:00:00 11.1 7 Noroeste 9 Norte 0 981.3 -1.3 92
2019-11-23 02:00:00 12.8 2 Sudoeste 21 Oeste 0.2 981.4 -2 87
2019-11-23 01:00:00 13.8 13 Oeste 24 Sudoeste 0 982.2 -2.5 92
2019-11-23 00:00:00 14.3 16 Sudoeste 30 Sudoeste 0 982.6 -3 92
2019-11-22 23:00:00 14.2 23 Sudoeste 35 Sur 0.1 983.4 -3 93
2019-11-22 22:00:00 14.3 21 Sur 35 Sur 0 984.7 -2.7 93
2019-11-22 21:00:00 14.2 21 Sur 33 Sur 0 985.6 -2.9 94
2019-11-22 20:00:00 13.6 14 Sur 22 Sur 3.2 986.4 -2.9 96
2019-11-22 19:00:00 12.2 7 Nordeste 13 Nordeste 4.4 987.4 -2.8 94
2019-11-22 18:00:00 12.1 8 Norte 15 Norte 1.3 988.5 -2.6 92
2019-11-22 17:00:00 12.6 8 Norte 9 Norte 0.7 989.3 -2.7 90
2019-11-22 16:00:00 13.6 6 Sudoeste 13 Sudoeste 0.1 990.2 -2.8 82
2019-11-22 15:00:00 13.7 9 Sudoeste 24 Sur 0 991.1 -3.5 78
2019-11-22 14:00:00 14.8 16 Sur 22 Sur 0 992 -3.4 64
2019-11-22 13:00:00 16.8 12 Sudeste 22 Sur 0 993 -2.7 59
2019-11-22 12:00:00 14.9 12 Sudeste 21 Sudeste 0 994.6 -1.4 76
2019-11-22 11:00:00 15.9 9 Sudeste 13 Sudeste 0 995.4 -0.6 69
2019-11-22 10:00:00 13.5 8 Nordeste 15 Norte 0 995.7 -0.6 76
2019-11-22 09:00:00 11.2 11 Norte 24 Nordeste 0 996 -0.6 82
2019-11-22 08:00:00 10.2 12 Norte 15 Norte 0 996 -0.6 86
2019-11-22 07:00:00 8.2 10 Norte 13 Norte 0 996.3 -0.7 86
2019-11-22 06:00:00 9.1 8 Nordeste 17 Norte 0 996.6 -1.2 81
2019-11-22 05:00:00 10.2 13 Norte 21 Norte 0 996.6 -1.6 75
2019-11-22 04:00:00 10.2 14 Norte 21 Norte 0 997 -1.9 72
2019-11-22 03:00:00 10.8 14 Norte 21 Norte 0 997.8 -1.5 68
2019-11-22 02:00:00 10.4 15 Norte 21 Norte 0 998.2 -1.1 67
2019-11-22 01:00:00 9.9 13 Norte 21 Norte 0 998.9 -0.6 69
2019-11-22 00:00:00 10.3 15 Norte 22 Norte 0 999.3 -0.1 67
2019-11-21 23:00:00 9.6 16 Norte 22 Norte 0 999.3 0.1 71
2019-11-21 22:00:00 9.5 14 Norte 21 Norte 0 999.5 0.5 71
2019-11-21 21:00:00 9.9 13 Norte -- -- 0 999.4 0.7 76
2019-11-21 20:00:00 10.2 10 Norte -- -- -- 999.2 0.8 79
2019-11-21 19:00:00 10.8 7 Noroeste 9 Oeste 0 999 0.7 77
2019-11-21 18:00:00 11.5 7 Sudoeste 15 Sudoeste 0 998.7 0.6 74
2019-11-21 17:00:00 12.5 10 Sudoeste 24 Sudoeste 0 998.4 0.4 73
2019-11-21 16:00:00 13.3 15 Sudoeste 30 Sur 0 998.3 0 63
2019-11-21 15:00:00 16.1 20 Oeste 33 Oeste 0 998.1 -1 40
2019-11-21 14:00:00 16.2 15 Oeste 30 Oeste 0 998 -1.4 42
2019-11-21 13:00:00 15.7 16 Oeste 24 Noroeste 0 998.3 -1.1 45
2019-11-21 12:00:00 14.5 12 Sudoeste 18 Oeste 0 999.1 0 53
2019-11-21 11:00:00 11.7 3 Este 8 Sudeste 0 999.4 0.6 67
2019-11-21 10:00:00 9.5 0 Calma 8 Este 0 999.4 1.1 76
2019-11-21 09:00:00 6.5 5 Nordeste 13 Norte 0 999.1 0.7 88
2019-11-21 08:00:00 -- -- -- -- -- -- -- -- --
2019-11-21 07:00:00 -- -- -- -- -- -- -- -- --
2019-11-21 06:00:00 -- -- -- -- -- -- -- -- --
2019-11-21 05:00:00 -- -- -- -- -- -- -- -- --
2019-11-21 04:00:00 -- -- -- -- -- -- -- -- --
2019-11-21 03:00:00 -- -- -- -- -- -- -- -- --
2019-11-21 02:00:00 -- -- -- -- -- -- -- -- --
2019-11-21 01:00:00 -- -- -- -- -- -- -- -- --
2019-11-21 00:00:00 -- -- -- -- -- -- -- -- --
2019-11-20 23:00:00 -- -- -- -- -- -- -- -- --
2019-11-20 22:00:00 -- -- -- -- -- -- -- -- --
2019-11-20 21:00:00 -- -- -- -- -- -- -- -- --
2019-11-20 20:00:00 -- -- -- -- -- -- -- -- --
2019-11-20 19:00:00 8 12 Norte 15 Norte 0 1000.5 -0.5 84
2019-11-20 18:00:00 9.9 8 Norte 9 Norte 0 1000.6 -0.6 79
2019-11-20 17:00:00 12.1 6 Este 11 Sudeste 0 1000.6 -1.2 69
2019-11-20 16:00:00 13.3 8 Este 15 Sudeste 0 1001 -1.7 64
2019-11-20 15:00:00 14 11 Sudeste 21 Sudeste 0 1001.2 -2.3 60
2019-11-20 14:00:00 14.2 7 Sur 13 Sur 0 1001.8 -2.3 55
2019-11-20 13:00:00 13.7 0 Calma 9 Noroeste 0 1002.7 -1.6 56
2019-11-20 12:00:00 12.8 6 Norte 13 Norte 0 1003.5 -0.6 53
2019-11-20 11:00:00 10 8 Norte 17 Norte 0 1004.1 0 63
2019-11-20 10:00:00 7.9 10 Nordeste 15 Nordeste 0 1004.3 0.2 70
2019-11-20 09:00:00 5.2 8 Nordeste 13 Norte 0 1004.1 -0.1 82
2019-11-20 08:00:00 3.7 12 Norte 18 Norte 0 1004.1 -0.3 84
2019-11-20 07:00:00 3.9 15 Norte 21 Norte 0 1004.1 -0.7 83
2019-11-20 06:00:00 3.6 14 Norte 21 Norte 0 1004.2 -1 83
2019-11-20 05:00:00 3 13 Norte 17 Norte 0 1004.4 -1.2 85
2019-11-20 04:00:00 3 14 Norte 17 Norte 0 1004.8 -1.3 83
2019-11-20 03:00:00 2.3 10 Norte 15 Norte 0 1005.2 -1.3 83
2019-11-20 02:00:00 1.8 8 Nordeste 11 Norte 0 1005.6 -1.2 85
2019-11-20 01:00:00 3 10 Nordeste 17 Norte 0 1006.1 -0.8 79
2019-11-20 00:00:00 4 13 Norte 18 Norte 0 1006.5 -0.2 74
2019-11-19 23:00:00 4.3 16 Norte 21 Norte 0 1006.8 0.5 72
2019-11-19 22:00:00 3.3 12 Norte 13 Norte 0 1006.9 1.1 80
2019-11-19 21:00:00 3.7 6 Norte 11 Nordeste 0 1006.7 1 78
2019-11-19 20:00:00 5.2 9 Norte 15 Nordeste 0 1006.3 0.9 71
2019-11-19 19:00:00 6.8 10 Nordeste 15 Nordeste 0 1005.8 0.5 66
2019-11-19 18:00:00 9.7 7 Norte 21 Oeste 0 1005.7 0.6 54
2019-11-19 17:00:00 12.1 15 Oeste 28 Oeste 0 1005.4 -0.2 45
2019-11-19 16:00:00 13.6 17 Oeste 22 Oeste 0 1005.3 -0.9 40
2019-11-19 15:00:00 14 15 Oeste 26 Oeste 0 1005.1 -1.7 39
2019-11-19 14:00:00 13.9 4 Noroeste 15 Noroeste 0 1005.6 -1.4 38
2019-11-19 13:00:00 13.6 6 Nordeste 28 Noroeste 0 1006.2 -0.4 39
2019-11-19 12:00:00 12 21 Oeste 35 Oeste 0 1006.8 0.2 46
2019-11-19 11:00:00 11.3 7 Este 37 Oeste 0 1007 1 47
2019-11-19 10:00:00 9.1 26 Oeste 37 Oeste 0 1006.6 1.1 55
2019-11-19 09:00:00 5 0 Calma 11 Noroeste 0 1006.6 1 71
2019-11-19 08:00:00 2.4 7 Nordeste 30 Noroeste 0 1006 0.4 76
2019-11-19 07:00:00 6.1 27 Noroeste 45 Noroeste 0 1005.5 -0.3 65
2019-11-19 06:00:00 2.4 3 Sudeste 13 Sudeste 0 1005.6 -0.3 77
2019-11-19 05:00:00 1.9 4 Noroeste 11 Noroeste 0 1005.6 -0.3 79
2019-11-19 04:00:00 1.6 9 Nordeste 22 Noroeste 0 1005.8 -0.2 79
2019-11-19 03:00:00 6 14 Noroeste 28 Noroeste 0 1005.9 0 63
2019-11-19 02:00:00 5.2 10 Noroeste 22 Noroeste 0 1005.9 0.5 66
2019-11-19 01:00:00 5.7 14 Noroeste 28 Oeste 0 1006 0.9 64
2019-11-19 00:00:00 6.9 22 Oeste 41 Oeste 0 1005.9 1.8 59
2019-11-18 23:00:00 7.5 33 Oeste 52 Oeste 0 1005.4 1.5 58
2019-11-18 22:00:00 7.8 30 Oeste 48 Oeste 0 1005.1 2 56
2019-11-18 21:00:00 8.3 21 Oeste 37 Oeste 0 1004.1 1.5 57
2019-11-18 20:00:00 8.9 12 Oeste 46 Noroeste 0 1003.9 -- 56
2019-11-18 19:00:00 10.1 21 Oeste 41 Oeste 0 1003.1 1 52
2019-11-18 18:00:00 10.4 18 Oeste -- -- -- 1002.6 0.6 55
2019-11-18 17:00:00 -- -- -- -- -- -- -- -- --
2019-11-18 16:00:00 12.7 26 Oeste 37 Oeste 0 1002.1 0.3 50
2019-11-18 15:00:00 12.6 23 Oeste 32 Oeste 0 1002 0.4 53
2019-11-18 14:00:00 12.3 21 Oeste 30 Oeste 0 1001.8 0.1 58
2019-11-18 13:00:00 11.6 13 Oeste 28 Oeste 0 1001.8 0.9 60
2019-11-18 12:00:00 12.3 8 Oeste 24 Noroeste 0 1001.6 1.4 59
2019-11-18 11:00:00 10.1 11 Noroeste 30 Norte 0 1001.7 1.8 67
2019-11-18 10:00:00 11.1 8 Norte 15 Noroeste 0 1000.9 1.5 64
2019-11-18 09:00:00 7.5 9 Noroeste 13 Nordeste 0 1000.2 1.4 86
2019-11-18 08:00:00 5.6 4 Nordeste 17 Este 0 999.9 1.8 87
2019-11-18 07:00:00 4.3 8 Nordeste 13 Sur 0 999.4 1.3 88
2019-11-18 06:00:00 4.2 0 Calma 5 Sur 0 998.8 0.4 89
2019-11-18 05:00:00 4.7 4 Nordeste 13 Este 0 998.1 -0.2 89
2019-11-18 04:00:00 5 6 Este 15 Norte 0 998.1 -0.5 86
2019-11-18 03:00:00 6 13 Norte 15 Norte 0 998.4 -0.5 87
2019-11-18 02:00:00 7.5 8 Noroeste 15 Norte 0 998.3 -0.6 82
2019-11-18 01:00:00 7.5 10 Norte 15 Norte 0 998.6 -0.4 85
2019-11-18 00:00:00 7.1 8 Norte 11 Nordeste 0 998.9 -0.5 88
2019-11-17 23:00:00 8.9 5 Noroeste 9 Noroeste 0 998.9 -0.6 82
2019-11-17 22:00:00 10.4 8 Oeste 22 Oeste 0 999 -0.5 69
2019-11-17 21:00:00 10.7 15 Oeste 21 Oeste 0 999.4 -0.3 69
2019-11-17 20:00:00 10.8 10 Sudoeste 26 Oeste 0 999.5 0.3 68
2019-11-17 19:00:00 11.5 15 Sudoeste 26 Sudoeste 0 999.5 0.5 62
2019-11-17 18:00:00 11.8 8 Sur 18 Oeste 0 999.7 0.4 60
2019-11-17 17:00:00 13.4 11 Oeste 30 Oeste 0 999.2 -0.4 50
2019-11-17 16:00:00 14.5 23 Oeste 30 Oeste 0 999 -1.3 47
2019-11-17 15:00:00 15.9 18 Oeste 33 Oeste 0 999.3 -0.9 43
2019-11-17 14:00:00 13.5 13 Sudoeste 32 Oeste 0 999.6 -0.9 48
2019-11-17 13:00:00 12.1 26 Oeste 42 Oeste 0 1000.3 -0.5 50
2019-11-17 12:00:00 10.2 36 Oeste 46 Oeste 0 1000.2 0.1 52
2019-11-17 11:00:00 10 32 Oeste 42 Oeste 0 1000.5 0.3 51
2019-11-17 10:00:00 10.9 17 Oeste 35 Oeste 0 1000.8 0.9 50
2019-11-17 09:00:00 10.5 12 Sur 28 Sudeste 0 1000.1 -0.1 51
2019-11-17 08:00:00 7.5 18 Sudoeste 35 Sudeste 0 1000.2 -0.2 56
2019-11-17 07:00:00 8 12 Sur 28 Sudoeste 0 999.9 -0.8 58
2019-11-17 06:00:00 7.2 10 Oeste 30 Oeste 0 1000.2 -0.8 62
2019-11-17 05:00:00 8.4 16 Sudoeste 39 Oeste 0 1000.4 -1 56
2019-11-17 04:00:00 8.5 13 Sudoeste 26 Sudoeste 0 1000.7 -1.2 55
2019-11-17 03:00:00 8.5 17 Sudoeste 39 Oeste 0 1001 -1.1 57
2019-11-17 02:00:00 8.7 14 Oeste 26 Oeste 0 1001.4 -0.9 54
2019-11-17 01:00:00 8.2 13 Sur 30 Noroeste 0 1001.9 -0.7 58
2019-11-17 00:00:00 6.9 14 Sudoeste 21 Sudoeste 0 1002.1 -0.2 67
2019-11-16 23:00:00 6.3 12 Sur 13 Sur 0 1002.3 0.1 70
2019-11-16 22:00:00 6.3 4 Sudeste 17 Noroeste 0 1002.6 0.4 69
2019-11-16 21:00:00 8.3 13 Oeste 32 Oeste 0 1002.3 -0.1 60
2019-11-16 20:00:00 8.5 8 Oeste 18 Oeste 0 1002.2 -0.3 59
2019-11-16 19:00:00 9.4 17 Oeste 37 Oeste 0 1002.2 -0.2 55
2019-11-16 18:00:00 9.4 16 Oeste 35 Noroeste 0 1002.4 0.6 55
2019-11-16 17:00:00 10.1 25 Noroeste 48 Oeste 0 1002.5 0.5 53
2019-11-16 16:00:00 11.8 22 Noroeste 39 Noroeste 0 1002.4 0 44
2019-11-16 15:00:00 12.6 21 Oeste 33 Oeste 0 1001.8 -1 39
2019-11-16 14:00:00 12.9 18 Oeste 30 Oeste 0 1002 -0.8 44
2019-11-16 13:00:00 12.4 12 Oeste 24 Oeste 0 1002.4 -0.5 46
2019-11-16 12:00:00 12.4 2 Este 11 Noroeste 0 1002.8 0.3 45
2019-11-16 11:00:00 10.5 3 Nordeste 18 Noroeste 0 1002.8 1.5 55
2019-11-16 10:00:00 8 0 Calma 5 Sudeste 0 1002.9 2.3 66
2019-11-16 09:00:00 2.5 3 Norte 15 Norte 0 1002.5 2.8 86
2019-11-16 08:00:00 1.1 5 Noroeste 15 Noroeste 0 1001.3 2 88
2019-11-16 07:00:00 0.4 9 Nordeste 18 Este 0 1000.6 1.6 89
2019-11-16 06:00:00 1.8 12 Noroeste 17 Noroeste 0 999.7 1.6 87
2019-11-16 05:00:00 1.4 7 Nordeste 13 Norte 0 999.3 1.9 86
2019-11-16 04:00:00 2.4 0 Calma 8 Noroeste 0 999 1.9 83
2019-11-16 03:00:00 4.2 0 Calma -- -- -- 998.1 1.7 76
2019-11-16 02:00:00 6.3 9 Norte 30 Norte 0 997.4 2.1 64
2019-11-16 01:00:00 6 3 Norte 32 Noroeste 0 997.1 2.4 65
2019-11-16 00:00:00 7.2 8 Noroeste 32 Oeste 0 996.4 2.4 60
2019-11-15 23:00:00 7.7 23 Oeste 37 Sudoeste 0 995.3 1.3 58
2019-11-15 22:00:00 8 11 Nordeste 28 Norte 0 994.7 1.1 55
2019-11-15 21:00:00 8.3 11 Noroeste 39 Oeste 0 994 1 60
2019-11-15 20:00:00 7.7 24 Oeste 32 Oeste 0 994 1.5 70
2019-11-15 19:00:00 7.1 13 Sudoeste 22 Sudoeste 0 993.6 1.3 77
2019-11-15 18:00:00 9.6 14 Sudoeste 22 Sudoeste 0 993 1.1 63
2019-11-15 17:00:00 10.3 8 Oeste 18 Oeste 0 992.5 0.7 55
2019-11-15 16:00:00 10.8 14 Oeste 28 Oeste 0 992.3 0.4 48
2019-11-15 15:00:00 11.8 24 Oeste 39 Oeste 0 991.9 -0.4 43
2019-11-15 14:00:00 12.7 25 Oeste 35 Oeste 0 991.8 -0.7 44
2019-11-15 13:00:00 12.8 19 Oeste 37 Oeste 0 991.9 -- 44
2019-11-15 12:00:00 12 26 Noroeste 39 Noroeste 0 992.3 -0.2 45
2019-11-15 11:00:00 11.2 9 Norte -- -- -- 992.5 0.6 55
2019-11-15 10:00:00 -- -- -- -- -- -- -- -- --
2019-11-15 09:00:00 4.9 4 Sudeste 15 Norte 0 992.5 1.9 83
2019-11-15 08:00:00 4.1 7 Noroeste 11 Noroeste 0 991.9 1.7 85
2019-11-15 07:00:00 4.1 3 Oeste 15 Este 0 991.3 0.9 83
2019-11-15 06:00:00 5.3 6 Oeste 11 Oeste 0 990.6 0.4 76
2019-11-15 05:00:00 6 9 Norte 15 Norte 0 990.2 0.1 77
2019-11-15 04:00:00 4.8 6 Sudeste 11 Sur 0 990.4 0.5 81
2019-11-15 03:00:00 5 11 Norte 17 Norte 0 990.2 0.1 79
2019-11-15 02:00:00 4.6 10 Este 17 Norte 0 990.1 0.3 79
2019-11-15 01:00:00 5.4 14 Norte 21 Norte 0 989.9 0.2 77
2019-11-15 00:00:00 4.5 13 Norte 21 Nordeste 0 990.1 0.4 81
2019-11-14 23:00:00 4.5 10 Noroeste 15 Oeste 0 989.8 0.5 82
2019-11-14 22:00:00 6.1 8 Sudoeste 9 Oeste 0 989.7 0.7 74
2019-11-14 21:00:00 5.5 5 Este 18 Oeste 0 989.7 0.8 77
2019-11-14 20:00:00 7 10 Oeste 15 Sudoeste 0 989.3 0.5 69
2019-11-14 19:00:00 7.5 11 Sur 18 Sur 0 989 -0.2 67
2019-11-14 18:00:00 8.3 13 Sudoeste 21 Sudoeste 0 988.9 0.8 66
2019-11-14 17:00:00 10.8 10 Sur 21 Oeste 0 988.8 0.4 55
2019-11-14 16:00:00 9.8 13 Sudoeste 28 Oeste 0 989.2 0.3 60
2019-11-14 15:00:00 9.8 23 Oeste 32 Oeste 0 988.1 -0.6 61
2019-11-14 14:00:00 9.3 18 Oeste 45 Oeste 0 988.4 -1 63
2019-11-14 13:00:00 9.2 14 Oeste 46 Oeste 0 988.9 -0.8 70
2019-11-14 12:00:00 10.5 22 Oeste 65 Oeste 0 988.7 -1 63
2019-11-14 11:00:00 11.9 44 Oeste 67 Noroeste 0 989.4 -0.6 69
2019-11-14 10:00:00 11 16 Noroeste 50 Oeste 1.8 989.7 -1.3 87
2019-11-14 09:00:00 11.1 8 Norte 11 Norte 0 989.7 -2.3 92
2019-11-14 08:00:00 10.5 10 Norte 13 Noroeste 0 990 -3.5 93
2019-11-14 07:00:00 9.9 6 Nordeste 9 Nordeste 0 991 -4 90
2019-11-14 06:00:00 10.5 7 Norte 13 Nordeste 0 992 -4.3 85
2019-11-14 05:00:00 10.3 10 Norte -- -- 0 993.5 -4.1 80
2019-11-14 04:00:00 9.3 8 Norte -- -- 0 995 -3.5 83
2019-11-14 03:00:00 8.3 0 Calma 11 Nordeste 0 996.3 -2.6 87
2019-11-14 02:00:00 8.3 8 Este 17 Norte 0 997.6 -1.8 80
2019-11-14 01:00:00 8.2 10 Noroeste 17 Oeste 0 998.5 -1.4 77
2019-11-14 00:00:00 8.5 13 Oeste 17 Oeste 0 998.9 -1.5 77
2019-11-13 23:00:00 9.5 8 Sudoeste 13 Sur 0 999.4 -0.6 68
2019-11-13 22:00:00 9.6 9 Sur 15 Sudoeste 0 999.9 0 66
2019-11-13 21:00:00 10.2 3 Noroeste 15 Este 0 1000.4 1 66
2019-11-13 20:00:00 9.9 9 Sudeste 17 Sudeste 0 1000 1.1 70
2019-11-13 19:00:00 11.5 8 Nordeste 22 Oeste 0 999.9 1.2 66
2019-11-13 18:00:00 11.8 17 Oeste 24 Oeste 0 999.4 1 73
2019-11-13 17:00:00 14.4 8 Sudoeste 18 Sudoeste 0 998.9 0.6 62
2019-11-13 16:00:00 14.7 16 Oeste 26 Oeste 0 998.7 -0.2 61
2019-11-13 15:00:00 15 15 Oeste 24 Oeste 0 998.4 -0.4 64
2019-11-13 14:00:00 14.5 4 Oeste 13 Sudoeste 0 998.3 -0.5 70
2019-11-13 13:00:00 11.3 4 Noroeste 15 Norte 0 998.9 1.3 84
2019-11-13 12:00:00 10.2 5 Oeste 13 Oeste 0.7 998.8 2.1 89
2019-11-13 11:00:00 9.8 10 Oeste 18 Noroeste 1.6 998.8 3 91
2019-11-13 10:00:00 9.1 0 Calma 9 Nordeste 1.7 997.6 2.3 91
2019-11-13 09:00:00 9 9 Norte 15 Norte 1 996.7 2 89
2019-11-13 08:00:00 8.8 10 Norte 13 Norte 1.1 995.8 0.7 88
2019-11-13 07:00:00 9.7 7 Norte 13 Sudoeste 0.1 995.3 -0.1 77
2019-11-13 06:00:00 10.5 10 Sudoeste 17 Sudoeste 0 994.7 -1.2 66
2019-11-13 05:00:00 10.5 10 Oeste 22 Sudoeste 0 995.1 -0.9 65
2019-11-13 04:00:00 10.3 12 Sudoeste 18 Sur 0 995.4 -1.2 65
2019-11-13 03:00:00 10.8 14 Sur 24 Sur 0 995.9 -1.1 60
2019-11-13 02:00:00 11.7 9 Sur 26 Nordeste 0 996 -1.1 56
2019-11-13 01:00:00 12.2 14 Este 32 Oeste 0 996.6 -1.2 54
2019-11-13 00:00:00 13.1 23 Oeste 37 Oeste 0 997 -0.9 50
2019-11-12 23:00:00 12.7 17 Oeste 33 Oeste 0 997.1 -1 51
2019-11-12 22:00:00 13 6 Este 33 Oeste 0 997.8 -0.2 49
2019-11-12 21:00:00 13.3 19 Oeste 45 Noroeste 0 997.9 0 46
2019-11-12 20:00:00 12.9 18 Noroeste 45 Oeste 0 998.1 0.5 50
2019-11-12 19:00:00 13.4 28 Oeste 50 Noroeste 0 998 0.1 49
2019-11-12 18:00:00 13.8 33 Oeste 52 Oeste 0 997.9 -0.2 48
2019-11-12 17:00:00 15.2 27 Oeste 45 Noroeste 0 997.6 -1.5 43
2019-11-12 16:00:00 16.6 22 Oeste 50 Oeste 0 997.9 -2 39
2019-11-12 15:00:00 16.6 28 Oeste 45 Oeste 0 998.1 -2.6 39
2019-11-12 14:00:00 16.4 27 Oeste 42 Oeste 0 999.1 -1.4 41
2019-11-12 13:00:00 16 27 Oeste 39 Noroeste 0 999.9 -0.9 42
2019-11-12 12:00:00 15.6 18 Oeste 46 Oeste 0 1000.7 -0.5 40
2019-11-12 11:00:00 13.6 31 Oeste 45 Oeste 0 1000.5 -0.6 47
2019-11-12 10:00:00 12 26 Oeste 46 Oeste 0 1000.8 -0.8 50
2019-11-12 09:00:00 9.7 27 Oeste 48 Oeste 0 1001.2 -0.8 57
2019-11-12 08:00:00 8.9 37 Oeste 52 Oeste 0 1001.1 -1.2 61
2019-11-12 07:00:00 8.8 27 Noroeste 46 Noroeste 0 1001.6 -0.4 60
2019-11-12 06:00:00 8.4 25 Noroeste 39 Oeste 0 1002 0.4 63
2019-11-12 05:00:00 8.6 22 Noroeste 39 Oeste 0 1002.3 0.5 63
2019-11-12 04:00:00 9.2 26 Oeste 42 Oeste 0 1002 0.1 59
2019-11-12 03:00:00 9.5 25 Oeste 55 Noroeste 0 1001.6 -0.8 59
2019-11-12 02:00:00 9.9 30 Oeste 45 Noroeste 0 1001.8 0.1 55
2019-11-12 01:00:00 10 22 Noroeste 52 Noroeste 0 1001.9 0.4 54
2019-11-12 00:00:00 10.3 25 Noroeste 48 Noroeste 0 1002.4 1.1 54
2019-11-11 23:00:00 10.8 22 Noroeste 42 Oeste 0 1001.7 0.4 54
2019-11-11 22:00:00 11.3 22 Oeste 37 Oeste 0 1001.5 0.6 57
2019-11-11 21:00:00 11.9 22 Noroeste 37 Oeste 0 1001.3 0.3 57
2019-11-11 20:00:00 12.4 18 Noroeste 39 Noroeste 0 1001.3 0.2 60
2019-11-11 19:00:00 12.9 22 Noroeste 46 Oeste 0 1000.9 -0.3 60
2019-11-11 18:00:00 12.8 15 Oeste 30 Oeste 0 1001 0 58
2019-11-11 17:00:00 13.6 9 Noroeste 32 Oeste 0 1001.1 0.1 49
2019-11-11 16:00:00 15.1 21 Oeste 30 Oeste 0 1001.2 -0.1 44
2019-11-11 15:00:00 16 23 Oeste 35 Oeste 0 1001 -1.5 36
2019-11-11 14:00:00 15.6 24 Oeste 39 Oeste 0 1001 -2.1 39
2019-11-11 13:00:00 15.4 23 Oeste 35 Oeste 0 1001.3 -1.9 40
2019-11-11 12:00:00 14.8 2 Sudoeste 13 Norte 0 1002.5 -0.2 35
2019-11-11 11:00:00 12.9 5 Este 13 Este 0 1003.1 0.7 42
2019-11-11 10:00:00 9.5 8 Sur 11 Sur 0 1003.2 1.1 55
2019-11-11 09:00:00 9.2 12 Noroeste 32 Oeste 0 1002.7 0.3 53
2019-11-11 08:00:00 8.9 18 Oeste 30 Oeste 0 1002.4 -0.2 50
2019-11-11 07:00:00 8 22 Oeste 35 Oeste 0 1002.1 -0.7 56
2019-11-11 06:00:00 9 22 Noroeste 46 Noroeste 0 1002.4 -0.5 46
2019-11-11 05:00:00 8.5 28 Oeste 48 Noroeste 0 1002.6 -0.3 48
2019-11-11 04:00:00 7.2 18 Oeste 28 Oeste 0 1002.8 -0.5 56
2019-11-11 03:00:00 7.5 2 Norte 41 Oeste 0 1002.9 0.5 53
2019-11-11 02:00:00 7.6 27 Oeste 48 Oeste 0 1002.9 0.5 56
2019-11-11 01:00:00 7.7 24 Oeste 35 Oeste 0 1003.3 0.9 57
2019-11-11 00:00:00 7.4 23 Oeste 39 Noroeste 0 1002.4 0.3 62
2019-11-10 23:00:00 7.8 30 Oeste 42 Oeste 0 1002.4 1.3 62
2019-11-10 22:00:00 8 20 Oeste 33 Oeste 0 1002.4 2 63
2019-11-10 21:00:00 8.7 27 Oeste 39 Oeste 0 1002.1 2.2 60
2019-11-10 20:00:00 9.4 22 Oeste 55 Noroeste 0 1001.1 1.5 55
2019-11-10 19:00:00 9.9 30 Noroeste 54 Noroeste 0 1000.4 1.4 54
2019-11-10 18:00:00 10.4 31 Noroeste 54 Noroeste 0 999.9 0.9 52
2019-11-10 17:00:00 11.9 35 Noroeste 59 Noroeste 0 999.6 0.1 47
2019-11-10 16:00:00 13.1 34 Noroeste 59 Oeste 0 999 -1.3 45
2019-11-10 15:00:00 14 36 Noroeste 58 Oeste 0 999 -1.5 40
2019-11-10 14:00:00 13.8 37 Noroeste 54 Noroeste 0 999.5 -1.8 41
2019-11-10 13:00:00 13.8 33 Noroeste 52 Noroeste 0 1000.3 -0.9 39
2019-11-10 12:00:00 12.7 34 Noroeste 58 Noroeste 0 1000.5 -0.4 44
2019-11-10 11:00:00 11.5 28 Noroeste 54 Noroeste 0 1001.3 0.8 48
2019-11-10 10:00:00 11.1 22 Noroeste 52 Noroeste 0 1001.2 2.2 49
2019-11-10 09:00:00 9.5 30 Oeste 48 Oeste 0 1000.9 1.2 50
2019-11-10 08:00:00 9 28 Oeste 58 Oeste 0 1000.5 0.6 55
2019-11-10 07:00:00 9.3 38 Noroeste 55 Noroeste 0 999 -1.6 54
2019-11-10 06:00:00 9.6 23 Oeste 45 Oeste 0 999.7 -1 57
2019-11-10 05:00:00 10.3 12 Noroeste 48 Noroeste 0 999.9 -0.3 59
2019-11-10 04:00:00 10.6 18 Noroeste 35 Noroeste 0 1000.6 0.5 59
2019-11-10 03:00:00 11 19 Oeste 42 Oeste 0 1000.7 0 63
2019-11-10 02:00:00 12.1 22 Oeste 39 Oeste 0 1000.2 -1 55
2019-11-10 01:00:00 13.3 21 Oeste 30 Oeste 0 1000.1 -1.7 53
2019-11-10 00:00:00 13.3 17 Oeste 33 Oeste 0 1000.7 -1.8 53
2019-11-09 23:00:00 13.2 10 Oeste 30 Oeste 0 1001.2 -2.1 53
2019-11-09 22:00:00 13.3 6 Oeste 24 Oeste 0 1001.8 -1.8 52
2019-11-09 21:00:00 13 12 Sudoeste 32 Oeste 0 1002.5 -1.3 51
2019-11-09 20:00:00 13.4 27 Oeste 42 Oeste 0 1003.3 -0.6 48
2019-11-09 19:00:00 13.5 20 Oeste 42 Oeste 0 1003.6 -0.4 46
2019-11-09 18:00:00 13.8 22 Oeste 45 Noroeste 0 1003.8 -0.6 44
2019-11-09 17:00:00 15.2 36 Oeste 50 Noroeste 0 1003.9 -0.2 42
2019-11-09 16:00:00 14.9 23 Oeste 41 Oeste 0 1004 -0.2 45
2019-11-09 15:00:00 14.9 26 Noroeste 58 Oeste 0 1004.4 -0.5 47
2019-11-09 14:00:00 15.6 33 Noroeste 59 Noroeste 0 1004.1 -1.4 43
2019-11-09 13:00:00 15.2 44 Noroeste 65 Oeste 0 1004.2 -1.2 42
2019-11-09 12:00:00 15 40 Oeste 65 Oeste 0 1004.9 0.2 44
2019-11-09 11:00:00 13.9 44 Oeste 67 Noroeste 0 1005.5 1.3 46
2019-11-09 10:00:00 12.5 38 Oeste 76 Oeste 0 1005.4 1.2 50
2019-11-09 09:00:00 11 51 Oeste 74 Noroeste 0 1004.7 0.8 56
2019-11-09 08:00:00 9.9 46 Oeste 67 Oeste 0 1004.2 0.7 59
2019-11-09 07:00:00 9.6 45 Oeste 67 Oeste 0 1004.2 1 60
2019-11-09 06:00:00 9.7 40 Oeste 65 Oeste 0 1003.9 0.2 60
2019-11-09 05:00:00 9.8 32 Oeste 58 Oeste 0 1003.5 -0.1 59
2019-11-09 04:00:00 9.9 39 Oeste 61 Noroeste 0 1003.2 -0.3 59
2019-11-09 03:00:00 9.9 39 Oeste 58 Oeste 0 1003.7 0.9 60
2019-11-09 02:00:00 9.7 35 Noroeste 59 Noroeste 0 1003.6 0.9 60
2019-11-09 01:00:00 9.6 35 Noroeste 67 Oeste 0 1003.5 1.3 60
2019-11-09 00:00:00 9.6 41 Oeste 68 Oeste 0 1002.8 1.6 62
2019-11-08 23:00:00 9.4 48 Oeste 78 Oeste 0 1002.7 0.8 63
2019-11-08 22:00:00 9.5 40 Oeste 82 Noroeste 0 1002.2 1.8 62
2019-11-08 21:00:00 9.7 51 Oeste 71 Oeste 0 1001.2 2.4 60
2019-11-08 20:00:00 10.2 42 Oeste 76 Oeste 0 1001.9 2.8 57
2019-11-08 19:00:00 10.4 59 Oeste 87 Noroeste 0 1000.4 1 56
2019-11-08 18:00:00 11.1 63 Oeste 95 Noroeste 0 998.8 -0.1 53
2019-11-08 17:00:00 13.5 38 Oeste 61 Oeste 0 999.1 0.2 42
2019-11-08 16:00:00 13.6 32 Oeste 55 Oeste 0 999.4 0.2 41
2019-11-08 15:00:00 14.6 30 Oeste 68 Oeste 0 998.9 -0.5 36
2019-11-08 14:00:00 15.2 38 Oeste 59 Oeste 0 998.9 -0.5 34
2019-11-08 13:00:00 14.5 35 Oeste 65 Noroeste 0 999.2 0.1 38
2019-11-08 12:00:00 12.3 21 Oeste 52 Oeste 0 999.4 0.8 45
2019-11-08 11:00:00 10.2 25 Oeste 50 Oeste 0 999.4 0.5 49
2019-11-08 10:00:00 9.7 26 Oeste 52 Noroeste 0 999.1 0.6 48
2019-11-08 09:00:00 9.7 37 Oeste 59 Oeste 0 998.6 0.1 46
2019-11-08 08:00:00 8.8 28 Oeste 46 Oeste 0 998.9 0.4 49
2019-11-08 07:00:00 8.6 36 Oeste 55 Oeste 0 998.5 -0.2 51
2019-11-08 06:00:00 8.4 23 Oeste 45 Oeste 0 998.5 -0.2 57
2019-11-08 05:00:00 8.1 15 Sudoeste 28 Sudoeste 0 998.5 0.1 65
2019-11-08 04:00:00 8.1 18 Oeste 26 Oeste 0 998.7 0.2 67
2019-11-08 03:00:00 9.2 10 Sudoeste 22 Sudoeste 0 998.7 0.1 61
2019-11-08 02:00:00 7.7 12 Sudoeste 15 Sur 0 998.4 0 71
2019-11-08 01:00:00 10.2 8 Noroeste 30 Noroeste 0 998.5 0.5 58
2019-11-08 00:00:00 10.6 10 Norte 32 Noroeste 0 998.6 0.4 54
2019-11-07 23:00:00 11.3 19 Oeste 37 Oeste 0 998.4 0.1 52
2019-11-07 22:00:00 10.6 10 Sur 24 Sur 0 998 -0.1 57
2019-11-07 21:00:00 9.5 6 Sudoeste 15 Oeste 0 998.2 0.4 64
2019-11-07 20:00:00 10.3 7 Sur 17 Oeste 0 998.3 0.2 61
2019-11-07 19:00:00 12.3 12 Oeste 22 Oeste 0 998.1 0.1 53
2019-11-07 18:00:00 13.5 14 Oeste 22 Oeste 0 997.8 -0.1 46
2019-11-07 17:00:00 14.6 8 Sudoeste 21 Noroeste 0 998.1 0.1 46
2019-11-07 16:00:00 15.2 15 Oeste 37 Noroeste 0 998 -0.5 50
2019-11-07 15:00:00 17.4 22 Oeste 42 Oeste 0 997.9 -1.1 47
2019-11-07 14:00:00 17.1 20 Oeste 32 Oeste 0 998 -1.3 50
2019-11-07 13:00:00 16.6 22 Sudoeste 35 Oeste 0 998.5 -0.6 52
2019-11-07 12:00:00 16.7 16 Oeste 26 Oeste 0 999 -0.2 51
2019-11-07 11:00:00 14.5 3 Sur 18 Noroeste 0 999.3 0.6 61
2019-11-07 10:00:00 14.3 11 Noroeste 17 Noroeste 0 999.1 0.7 53
2019-11-07 09:00:00 11.8 7 Norte 17 Norte 0 999.2 0.3 62
2019-11-07 08:00:00 8.8 5 Nordeste 13 Oeste 0 998.7 -0.7 72
2019-11-07 07:00:00 10 10 Oeste 13 Oeste 0 998.4 -1.3 62
2019-11-07 06:00:00 10.9 12 Oeste 21 Oeste 0 998.9 -1.5 58
2019-11-07 05:00:00 10.7 14 Oeste 22 Oeste 0 999.4 -1.4 60
2019-11-07 04:00:00 9.9 6 Noroeste 11 Noroeste 0 999.7 -1.6 65
2019-11-07 03:00:00 10.8 10 Oeste 17 Oeste 0 1000.4 -1.3 61
2019-11-07 02:00:00 10 13 Oeste 21 Oeste 0 1000.8 -1.3 69
2019-11-07 01:00:00 10.8 6 Sudeste 21 Norte 0 1001.3 -1 65
2019-11-07 00:00:00 11.5 17 Oeste 24 Oeste 0 1001.7 -0.5 63
2019-11-06 23:00:00 12.2 7 Sudoeste 17 Sudoeste 0 1002.1 0.2 56
2019-11-06 22:00:00 10.8 8 Sudoeste 13 Sudoeste 0 1002.3 0.6 61
2019-11-06 21:00:00 12.9 9 Sur 22 Noroeste 0 1002.2 1 53
2019-11-06 20:00:00 11.6 4 Sudoeste 24 Noroeste 0 1001.9 0.9 60
2019-11-06 19:00:00 14.3 9 Noroeste 35 Noroeste 0 1001.7 1.2 49
2019-11-06 18:00:00 15.3 26 Oeste 46 Oeste 0 1001.2 0.4 45
2019-11-06 17:00:00 16.3 19 Oeste 46 Noroeste 0 1001 0.1 44
2019-11-06 16:00:00 17.9 35 Oeste 63 Oeste 0 1000.5 -0.6 40
2019-11-06 15:00:00 18.2 26 Oeste 54 Noroeste 0 1000.8 -0.9 41
2019-11-06 14:00:00 18.5 15 Oeste 48 Noroeste 0 1000.9 -1.2 41
2019-11-06 13:00:00 18 22 Noroeste 48 Noroeste 0 1001.1 -1 40
2019-11-06 12:00:00 17.3 27 Noroeste 48 Noroeste 0 1001.7 0 42
2019-11-06 11:00:00 16.2 29 Noroeste 55 Noroeste 0 1002.1 1.2 45
2019-11-06 10:00:00 15.5 23 Oeste 63 Noroeste 0 1002.1 2.3 48
2019-11-06 09:00:00 14.3 21 Noroeste 39 Norte 0 1001.7 2.2 51
2019-11-06 08:00:00 12.5 6 Noroeste 21 Noroeste 0 1000.9 1.6 57
2019-11-06 07:00:00 11.8 9 Noroeste 30 Norte 0 999.8 1.1 60
2019-11-06 06:00:00 12.5 14 Oeste 45 Noroeste 0 999.5 0.8 55
2019-11-06 05:00:00 12.3 22 Noroeste 52 Oeste 0 999.3 1.1 56
2019-11-06 04:00:00 12.4 22 Noroeste 42 Noroeste 0 998.7 0.6 53
2019-11-06 03:00:00 12.4 14 Norte 50 Norte 0 998.7 0.9 55
2019-11-06 02:00:00 12.5 32 Oeste 59 Oeste 0 998.2 -0.2 55
2019-11-06 01:00:00 12.8 32 Oeste 68 Oeste 0 998.1 0 52
2019-11-06 00:00:00 12.8 38 Oeste 58 Oeste 0 997.8 -0.3 53